Alligator Point, Florida
Current Conditions -  °F | °C
As of 11:53 PM on Friday 19 Dec 2014 (Local Time) from KTLH Reporting Station
Overcast Overcast  
Wind Chill: 52°   Ceiling: 10000
Heat Index: 52°   Visibility: 7mi
Dew Point: 48°   Wind: 3mph
Humidity: 86%   Direction: 360°N
Pressure: 30.13"   Gusts: NA
Location:  30.0223°N, 84.3911°W
Report Text: KTLH 200453Z AUTO 36003KT 7SM OVC100 11/09 A3013 RMK AO2 SLP202 P0005 T01110089 401780050 $
Loading
Personal Weather Stations






























Interactive Weather Map New forecast layout! Learn more

10-Day Weather Forecast

Advertisements
Track Severe Weather on mobile